sensor_id;sensor_type;location;lat;lon;timestamp;pressure;altitude;pressure_sealevel;temperature;humidity
33422;BME280;19763;55.798;37.782;2022-10-19T00:01:40;98943.34;;;10.02;83.63
33422;BME280;19763;55.798;37.782;2022-10-19T00:04:05;98928.84;;;9.96;82.91
33422;BME280;19763;55.798;37.782;2022-10-19T00:06:33;98939.25;;;9.95;82.59
33422;BME280;19763;55.798;37.782;2022-10-19T00:09:04;98929.00;;;9.90;82.43
33422;BME280;19763;55.798;37.782;2022-10-19T00:11:31;98926.38;;;9.92;82.10
33422;BME280;19763;55.798;37.782;2022-10-19T00:13:58;98928.91;;;9.95;82.17
33422;BME280;19763;55.798;37.782;2022-10-19T00:16:27;98912.72;;;9.88;82.83
33422;BME280;19763;55.798;37.782;2022-10-19T00:18:56;98923.47;;;10.02;82.70
33422;BME280;19763;55.798;37.782;2022-10-19T00:21:22;98919.13;;;10.03;82.80
33422;BME280;19763;55.798;37.782;2022-10-19T00:23:48;98914.94;;;9.99;82.81
33422;BME280;19763;55.798;37.782;2022-10-19T00:26:14;98896.88;;;9.97;82.09
33422;BME280;19763;55.798;37.782;2022-10-19T00:28:41;98903.56;;;10.05;82.48
33422;BME280;19763;55.798;37.782;2022-10-19T00:31:16;98891.88;;;9.93;82.09
33422;BME280;19763;55.798;37.782;2022-10-19T00:33:43;98906.25;;;10.01;82.50
33422;BME280;19763;55.798;37.782;2022-10-19T00:36:16;98893.41;;;9.98;82.56
33422;BME280;19763;55.798;37.782;2022-10-19T00:38:42;98888.94;;;10.04;82.97
33422;BME280;19763;55.798;37.782;2022-10-19T00:41:08;98885.44;;;10.05;82.27
33422;BME280;19763;55.798;37.782;2022-10-19T00:46:21;98885.31;;;10.09;82.23
33422;BME280;19763;55.798;37.782;2022-10-19T00:48:47;98874.22;;;10.06;82.20
33422;BME280;19763;55.798;37.782;2022-10-19T00:51:14;98880.16;;;10.09;82.47
33422;BME280;19763;55.798;37.782;2022-10-19T00:53:40;98877.47;;;10.12;82.92
33422;BME280;19763;55.798;37.782;2022-10-19T00:56:09;98867.28;;;10.08;82.37
33422;BME280;19763;55.798;37.782;2022-10-19T00:58:36;98864.72;;;10.06;82.87
33422;BME280;19763;55.798;37.782;2022-10-19T01:01:03;98873.16;;;10.11;82.49
33422;BME280;19763;55.798;37.782;2022-10-19T01:03:30;98880.94;;;10.11;83.67
33422;BME280;19763;55.798;37.782;2022-10-19T01:05:56;98880.03;;;10.12;84.07
33422;BME280;19763;55.798;37.782;2022-10-19T01:08:22;98881.88;;;10.09;83.31
33422;BME280;19763;55.798;37.782;2022-10-19T01:16:17;98879.50;;;10.02;83.61
33422;BME280;19763;55.798;37.782;2022-10-19T01:30:54;98869.09;;;10.04;83.52
33422;BME280;19763;55.798;37.782;2022-10-19T01:39:07;98885.50;;;10.03;84.07
33422;BME280;19763;55.798;37.782;2022-10-19T01:44:22;98869.75;;;10.11;83.39
33422;BME280;19763;55.798;37.782;2022-10-19T01:46:57;98865.41;;;10.11;83.44
33422;BME280;19763;55.798;37.782;2022-10-19T01:49:41;98858.84;;;10.01;83.44
33422;BME280;19763;55.798;37.782;2022-10-19T01:52:10;98850.69;;;9.87;83.15
33422;BME280;19763;55.798;37.782;2022-10-19T01:54:41;98840.34;;;9.87;83.54
33422;BME280;19763;55.798;37.782;2022-10-19T01:57:10;98833.59;;;9.82;83.05
33422;BME280;19763;55.798;37.782;2022-10-19T01:59:38;98828.50;;;9.79;83.30
33422;BME280;19763;55.798;37.782;2022-10-19T02:02:06;98829.78;;;9.66;83.75
33422;BME280;19763;55.798;37.782;2022-10-19T02:04:34;98818.66;;;9.64;84.23
33422;BME280;19763;55.798;37.782;2022-10-19T02:07:01;98824.28;;;9.77;83.19
33422;BME280;19763;55.798;37.782;2022-10-19T02:09:27;98814.31;;;9.64;83.97
33422;BME280;19763;55.798;37.782;2022-10-19T02:11:55;98823.00;;;9.63;84.52
33422;BME280;19763;55.798;37.782;2022-10-19T02:14:29;98825.88;;;9.81;84.06
33422;BME280;19763;55.798;37.782;2022-10-19T02:17:07;98808.16;;;9.68;84.37
33422;BME280;19763;55.798;37.782;2022-10-19T02:19:33;98797.16;;;9.63;84.18
33422;BME280;19763;55.798;37.782;2022-10-19T02:21:59;98791.88;;;9.66;84.58
33422;BME280;19763;55.798;37.782;2022-10-19T02:24:25;98795.75;;;9.80;83.92
33422;BME280;19763;55.798;37.782;2022-10-19T02:26:51;98793.75;;;9.88;83.60
33422;BME280;19763;55.798;37.782;2022-10-19T02:29:17;98797.16;;;9.89;83.87
33422;BME280;19763;55.798;37.782;2022-10-19T02:31:43;98782.25;;;9.70;84.32
33422;BME280;19763;55.798;37.782;2022-10-19T02:34:10;98791.59;;;9.74;83.90
33422;BME280;19763;55.798;37.782;2022-10-19T02:36:35;98790.06;;;9.68;84.05
33422;BME280;19763;55.798;37.782;2022-10-19T02:39:01;98791.59;;;9.74;83.51
33422;BME280;19763;55.798;37.782;2022-10-19T02:44:28;98773.16;;;9.58;84.24
33422;BME280;19763;55.798;37.782;2022-10-19T02:47:10;98767.75;;;9.66;84.14
33422;BME280;19763;55.798;37.782;2022-10-19T02:49:38;98781.16;;;9.77;83.61
33422;BME280;19763;55.798;37.782;2022-10-19T02:52:06;98777.19;;;9.67;84.60
33422;BME280;19763;55.798;37.782;2022-10-19T02:54:32;98776.09;;;9.47;85.65
33422;BME280;19763;55.798;37.782;2022-10-19T02:56:58;98773.72;;;9.41;86.11
33422;BME280;19763;55.798;37.782;2022-10-19T02:59:24;98773.50;;;9.47;85.72
33422;BME280;19763;55.798;37.782;2022-10-19T03:01:50;98764.25;;;9.40;86.40
33422;BME280;19763;55.798;37.782;2022-10-19T03:04:16;98769.41;;;9.40;87.30
33422;BME280;19763;55.798;37.782;2022-10-19T03:06:41;98770.19;;;9.44;87.05
33422;BME280;19763;55.798;37.782;2022-10-19T03:09:07;98765.75;;;9.19;87.29
33422;BME280;19763;55.798;37.782;2022-10-19T03:11:33;98749.31;;;9.22;87.35
33422;BME280;19763;55.798;37.782;2022-10-19T03:13:59;98758.50;;;9.04;88.45
33422;BME280;19763;55.798;37.782;2022-10-19T03:16:25;98763.88;;;8.96;88.71
33422;BME280;19763;55.798;37.782;2022-10-19T03:18:50;98743.41;;;8.90;89.24
33422;BME280;19763;55.798;37.782;2022-10-19T03:21:17;98754.31;;;9.00;89.68
33422;BME280;19763;55.798;37.782;2022-10-19T03:23:42;98751.25;;;8.87;89.83
33422;BME280;19763;55.798;37.782;2022-10-19T03:26:12;98749.13;;;8.71;90.60
33422;BME280;19763;55.798;37.782;2022-10-19T03:28:38;98750.94;;;8.68;91.12
33422;BME280;19763;55.798;37.782;2022-10-19T03:31:04;98752.41;;;8.76;91.58
33422;BME280;19763;55.798;37.782;2022-10-19T03:33:30;98742.25;;;8.70;91.45
33422;BME280;19763;55.798;37.782;2022-10-19T03:36:19;98752.34;;;8.79;91.55
33422;BME280;19763;55.798;37.782;2022-10-19T03:38:45;98752.09;;;8.87;90.70
33422;BME280;19763;55.798;37.782;2022-10-19T03:41:11;98742.19;;;9.02;90.55
33422;BME280;19763;55.798;37.782;2022-10-19T03:43:37;98744.03;;;8.98;89.21
33422;BME280;19763;55.798;37.782;2022-10-19T03:46:03;98736.38;;;8.95;89.45
33422;BME280;19763;55.798;37.782;2022-10-19T03:48:29;98736.66;;;9.14;88.75
33422;BME280;19763;55.798;37.782;2022-10-19T03:51:04;98717.13;;;9.05;88.56
33422;BME280;19763;55.798;37.782;2022-10-19T03:53:30;98738.91;;;9.25;88.77
33422;BME280;19763;55.798;37.782;2022-10-19T03:56:13;98730.25;;;8.97;88.51
33422;BME280;19763;55.798;37.782;2022-10-19T03:58:40;98722.00;;;8.86;89.79
33422;BME280;19763;55.798;37.782;2022-10-19T04:01:12;98706.91;;;8.74;90.10
33422;BME280;19763;55.798;37.782;2022-10-19T04:03:38;98713.75;;;9.03;90.14
33422;BME280;19763;55.798;37.782;2022-10-19T04:06:09;98710.06;;;9.10;90.51
33422;BME280;19763;55.798;37.782;2022-10-19T04:08:35;98710.53;;;8.95;89.81
33422;BME280;19763;55.798;37.782;2022-10-19T04:11:07;98701.75;;;9.01;90.45
33422;BME280;19763;55.798;37.782;2022-10-19T04:13:33;98714.16;;;9.18;89.37
33422;BME280;19763;55.798;37.782;2022-10-19T04:15:59;98700.22;;;8.95;89.16
33422;BME280;19763;55.798;37.782;2022-10-19T04:18:25;98690.13;;;8.87;89.30
33422;BME280;19763;55.798;37.782;2022-10-19T04:20:58;98690.09;;;8.89;90.18
33422;BME280;19763;55.798;37.782;2022-10-19T04:23:33;98677.16;;;8.89;89.51
33422;BME280;19763;55.798;37.782;2022-10-19T04:26:06;98665.69;;;8.71;89.81
33422;BME280;19763;55.798;37.782;2022-10-19T04:28:33;98681.88;;;8.46;90.54
33422;BME280;19763;55.798;37.782;2022-10-19T04:31:03;98662.25;;;8.40;91.33
33422;BME280;19763;55.798;37.782;2022-10-19T04:33:29;98670.84;;;8.71;90.47
33422;BME280;19763;55.798;37.782;2022-10-19T04:36:02;98676.19;;;8.64;90.55
33422;BME280;19763;55.798;37.782;2022-10-19T04:38:28;98679.25;;;8.77;90.19
33422;BME280;19763;55.798;37.782;2022-10-19T04:40:54;98682.81;;;8.73;90.79
33422;BME280;19763;55.798;37.782;2022-10-19T04:43:21;98680.22;;;8.73;89.40
33422;BME280;19763;55.798;37.782;2022-10-19T04:45:47;98678.34;;;8.78;89.52
33422;BME280;19763;55.798;37.782;2022-10-19T04:48:12;98689.94;;;8.65;89.50
33422;BME280;19763;55.798;37.782;2022-10-19T04:50:38;98685.44;;;8.72;89.11
33422;BME280;19763;55.798;37.782;2022-10-19T04:53:03;98683.38;;;8.83;88.54
33422;BME280;19763;55.798;37.782;2022-10-19T04:55:29;98684.44;;;8.76;87.84
33422;BME280;19763;55.798;37.782;2022-10-19T04:57:55;98674.69;;;8.57;89.57
33422;BME280;19763;55.798;37.782;2022-10-19T05:00:20;98666.63;;;8.68;88.97
33422;BME280;19763;55.798;37.782;2022-10-19T05:02:46;98672.34;;;8.78;88.60
33422;BME280;19763;55.798;37.782;2022-10-19T05:05:12;98677.03;;;8.65;87.76
33422;BME280;19763;55.798;37.782;2022-10-19T05:07:38;98676.31;;;8.60;87.99
33422;BME280;19763;55.798;37.782;2022-10-19T05:10:05;98667.19;;;8.78;88.63
33422;BME280;19763;55.798;37.782;2022-10-19T05:12:31;98669.72;;;8.79;88.25
33422;BME280;19763;55.798;37.782;2022-10-19T05:14:56;98649.63;;;8.61;88.59
33422;BME280;19763;55.798;37.782;2022-10-19T05:17:22;98662.41;;;8.66;87.76
33422;BME280;19763;55.798;37.782;2022-10-19T05:19:48;98663.22;;;8.66;89.23
33422;BME280;19763;55.798;37.782;2022-10-19T05:22:13;98665.84;;;8.64;88.88
33422;BME280;19763;55.798;37.782;2022-10-19T05:24:39;98660.78;;;8.61;89.56
33422;BME280;19763;55.798;37.782;2022-10-19T05:27:04;98658.13;;;8.64;88.12
33422;BME280;19763;55.798;37.782;2022-10-19T05:29:30;98661.97;;;8.79;87.73
33422;BME280;19763;55.798;37.782;2022-10-19T05:31:58;98655.84;;;8.84;87.47
33422;BME280;19763;55.798;37.782;2022-10-19T05:34:23;98662.19;;;8.72;87.90
33422;BME280;19763;55.798;37.782;2022-10-19T05:36:49;98653.84;;;8.63;87.51
33422;BME280;19763;55.798;37.782;2022-10-19T05:39:16;98659.75;;;8.67;88.05
33422;BME280;19763;55.798;37.782;2022-10-19T05:41:43;98661.56;;;8.65;87.14
33422;BME280;19763;55.798;37.782;2022-10-19T05:44:16;98635.59;;;8.40;87.72
33422;BME280;19763;55.798;37.782;2022-10-19T05:46:42;98651.81;;;8.43;88.06
33422;BME280;19763;55.798;37.782;2022-10-19T05:49:10;98652.84;;;8.68;88.28
33422;BME280;19763;55.798;37.782;2022-10-19T05:51:36;98653.19;;;8.57;87.97
33422;BME280;19763;55.798;37.782;2022-10-19T05:54:02;98657.94;;;8.41;88.28
33422;BME280;19763;55.798;37.782;2022-10-19T05:56:29;98647.09;;;8.59;87.79
33422;BME280;19763;55.798;37.782;2022-10-19T05:58:56;98652.84;;;8.68;87.22
33422;BME280;19763;55.798;37.782;2022-10-19T06:01:23;98650.41;;;8.33;89.23
33422;BME280;19763;55.798;37.782;2022-10-19T06:03:53;98634.88;;;8.35;87.87
33422;BME280;19763;55.798;37.782;2022-10-19T06:06:19;98643.75;;;8.56;88.93
33422;BME280;19763;55.798;37.782;2022-10-19T06:08:46;98645.16;;;8.66;88.72
33422;BME280;19763;55.798;37.782;2022-10-19T06:11:14;98653.78;;;8.67;87.29
33422;BME280;19763;55.798;37.782;2022-10-19T06:13:41;98652.38;;;8.55;88.61
33422;BME280;19763;55.798;37.782;2022-10-19T06:16:08;98647.75;;;8.36;89.16
33422;BME280;19763;55.798;37.782;2022-10-19T06:18:35;98643.50;;;8.35;89.14
33422;BME280;19763;55.798;37.782;2022-10-19T06:21:03;98645.38;;;7.99;89.42
33422;BME280;19763;55.798;37.782;2022-10-19T06:23:30;98649.19;;;8.17;89.67
33422;BME280;19763;55.798;37.782;2022-10-19T06:25:56;98638.88;;;8.17;89.83
33422;BME280;19763;55.798;37.782;2022-10-19T06:28:21;98643.84;;;8.23;89.96
33422;BME280;19763;55.798;37.782;2022-10-19T06:30:47;98638.63;;;8.24;89.56
33422;BME280;19763;55.798;37.782;2022-10-19T06:33:12;98633.75;;;8.13;90.06
33422;BME280;19763;55.798;37.782;2022-10-19T06:35:38;98642.75;;;8.30;89.65
33422;BME280;19763;55.798;37.782;2022-10-19T06:38:07;98646.75;;;8.40;88.82
33422;BME280;19763;55.798;37.782;2022-10-19T06:40:33;98643.56;;;8.32;88.51
33422;BME280;19763;55.798;37.782;2022-10-19T06:42:59;98637.97;;;8.48;88.08
33422;BME280;19763;55.798;37.782;2022-10-19T06:45:25;98640.97;;;8.62;87.71
33422;BME280;19763;55.798;37.782;2022-10-19T06:47:50;98632.56;;;8.57;87.67
33422;BME280;19763;55.798;37.782;2022-10-19T06:50:16;98632.25;;;8.36;87.98
33422;BME280;19763;55.798;37.782;2022-10-19T06:52:42;98627.25;;;8.32;89.01
33422;BME280;19763;55.798;37.782;2022-10-19T06:55:08;98614.84;;;8.44;88.35
33422;BME280;19763;55.798;37.782;2022-10-19T06:57:34;98620.72;;;8.50;86.31
33422;BME280;19763;55.798;37.782;2022-10-19T07:00:00;98624.41;;;8.41;86.72
33422;BME280;19763;55.798;37.782;2022-10-19T07:02:25;98628.91;;;8.64;86.51
33422;BME280;19763;55.798;37.782;2022-10-19T07:04:51;98622.97;;;8.60;86.45
33422;BME280;19763;55.798;37.782;2022-10-19T07:07:16;98622.28;;;8.55;86.74
33422;BME280;19763;55.798;37.782;2022-10-19T07:09:42;98621.19;;;8.62;85.91
33422;BME280;19763;55.798;37.782;2022-10-19T07:12:07;98609.53;;;8.77;86.29
33422;BME280;19763;55.798;37.782;2022-10-19T07:14:35;98608.34;;;8.61;86.11
33422;BME280;19763;55.798;37.782;2022-10-19T07:17:05;98612.16;;;8.76;85.82
33422;BME280;19763;55.798;37.782;2022-10-19T07:19:30;98600.72;;;8.56;86.19
33422;BME280;19763;55.798;37.782;2022-10-19T07:21:57;98620.34;;;8.62;87.13
33422;BME280;19763;55.798;37.782;2022-10-19T07:24:23;98612.75;;;8.57;86.79
33422;BME280;19763;55.798;37.782;2022-10-19T07:26:48;98598.25;;;8.53;87.58
33422;BME280;19763;55.798;37.782;2022-10-19T07:29:14;98612.78;;;8.56;86.84
33422;BME280;19763;55.798;37.782;2022-10-19T07:31:39;98611.75;;;8.61;87.07
33422;BME280;19763;55.798;37.782;2022-10-19T07:34:06;98612.00;;;8.80;86.77
33422;BME280;19763;55.798;37.782;2022-10-19T07:36:33;98605.72;;;8.62;86.77
33422;BME280;19763;55.798;37.782;2022-10-19T07:39:00;98608.94;;;8.69;87.07
33422;BME280;19763;55.798;37.782;2022-10-19T07:41:26;98609.19;;;8.61;86.98
33422;BME280;19763;55.798;37.782;2022-10-19T07:43:52;98600.44;;;8.66;87.70
33422;BME280;19763;55.798;37.782;2022-10-19T07:46:21;98594.16;;;8.74;87.76
33422;BME280;19763;55.798;37.782;2022-10-19T07:48:47;98596.34;;;8.87;86.95
33422;BME280;19763;55.798;37.782;2022-10-19T07:51:14;98606.81;;;8.55;88.06
33422;BME280;19763;55.798;37.782;2022-10-19T07:53:41;98604.81;;;8.63;87.80
33422;BME280;19763;55.798;37.782;2022-10-19T07:56:10;98616.44;;;8.49;89.26
33422;BME280;19763;55.798;37.782;2022-10-19T07:58:36;98610.84;;;8.34;90.15
33422;BME280;19763;55.798;37.782;2022-10-19T08:01:08;98613.97;;;8.45;89.57
33422;BME280;19763;55.798;37.782;2022-10-19T08:03:35;98610.34;;;8.51;90.13
33422;BME280;19763;55.798;37.782;2022-10-19T08:06:09;98612.59;;;8.32;90.93
33422;BME280;19763;55.798;37.782;2022-10-19T08:08:35;98624.34;;;8.42;90.32
33422;BME280;19763;55.798;37.782;2022-10-19T08:13:46;98617.69;;;8.35;91.78
33422;BME280;19763;55.798;37.782;2022-10-19T08:16:22;98624.84;;;8.25;92.14
33422;BME280;19763;55.798;37.782;2022-10-19T08:18:49;98611.19;;;8.22;91.47
33422;BME280;19763;55.798;37.782;2022-10-19T08:21:15;98616.69;;;8.39;91.37
33422;BME280;19763;55.798;37.782;2022-10-19T08:23:40;98615.84;;;8.39;91.63
33422;BME280;19763;55.798;37.782;2022-10-19T08:26:06;98615.69;;;8.45;90.87
33422;BME280;19763;55.798;37.782;2022-10-19T08:28:32;98612.00;;;8.24;92.07
33422;BME280;19763;55.798;37.782;2022-10-19T08:30:57;98604.78;;;8.35;91.42
33422;BME280;19763;55.798;37.782;2022-10-19T08:33:24;98599.91;;;8.26;91.79
33422;BME280;19763;55.798;37.782;2022-10-19T08:35:50;98598.16;;;8.26;92.46
33422;BME280;19763;55.798;37.782;2022-10-19T08:38:18;98600.41;;;8.37;91.63
33422;BME280;19763;55.798;37.782;2022-10-19T08:40:44;98598.81;;;8.33;91.27
33422;BME280;19763;55.798;37.782;2022-10-19T08:43:30;98593.31;;;8.16;91.95
33422;BME280;19763;55.798;37.782;2022-10-19T08:46:35;98608.88;;;8.12;93.07
33422;BME280;19763;55.798;37.782;2022-10-19T08:48:54;98609.69;;;8.15;92.97
33422;BME280;19763;55.798;37.782;2022-10-19T08:51:21;98607.88;;;8.18;93.14
33422;BME280;19763;55.798;37.782;2022-10-19T08:53:58;98588.69;;;7.97;93.38
33422;BME280;19763;55.798;37.782;2022-10-19T08:56:32;98603.44;;;8.22;93.03
33422;BME280;19763;55.798;37.782;2022-10-19T08:59:36;98579.72;;;8.10;93.02
33422;BME280;19763;55.798;37.782;2022-10-19T09:02:38;98600.97;;;8.19;92.93
33422;BME280;19763;55.798;37.782;2022-10-19T09:05:17;98593.19;;;8.20;92.22
33422;BME280;19763;55.798;37.782;2022-10-19T09:07:46;98587.81;;;8.28;91.34
33422;BME280;19763;55.798;37.782;2022-10-19T09:15:21;98604.38;;;8.49;90.63
33422;BME280;19763;55.798;37.782;2022-10-19T09:17:49;98603.03;;;8.36;91.25
33422;BME280;19763;55.798;37.782;2022-10-19T09:20:16;98604.91;;;8.30;90.57
33422;BME280;19763;55.798;37.782;2022-10-19T09:22:43;98601.03;;;8.47;91.45
33422;BME280;19763;55.798;37.782;2022-10-19T09:25:14;98610.22;;;8.26;91.33
33422;BME280;19763;55.798;37.782;2022-10-19T09:27:46;98602.81;;;8.43;91.47
33422;BME280;19763;55.798;37.782;2022-10-19T09:30:20;98595.13;;;8.42;91.49
33422;BME280;19763;55.798;37.782;2022-10-19T09:32:50;98606.56;;;8.63;90.41
33422;BME280;19763;55.798;37.782;2022-10-19T09:35:22;98587.78;;;8.58;90.65
33422;BME280;19763;55.798;37.782;2022-10-19T09:37:50;98609.13;;;8.63;90.02
33422;BME280;19763;55.798;37.782;2022-10-19T09:40:19;98604.63;;;8.70;89.49
33422;BME280;19763;55.798;37.782;2022-10-19T09:42:46;98608.25;;;8.64;89.15
33422;BME280;19763;55.798;37.782;2022-10-19T09:45:22;98602.94;;;8.69;87.78
33422;BME280;19763;55.798;37.782;2022-10-19T09:47:53;98615.66;;;8.46;87.98
33422;BME280;19763;55.798;37.782;2022-10-19T09:50:21;98608.88;;;8.42;87.37
33422;BME280;19763;55.798;37.782;2022-10-19T09:52:52;98607.72;;;8.53;88.45
33422;BME280;19763;55.798;37.782;2022-10-19T09:55:32;98620.16;;;8.68;87.99
33422;BME280;19763;55.798;37.782;2022-10-19T09:58:09;98622.69;;;8.70;87.77
33422;BME280;19763;55.798;37.782;2022-10-19T10:00:45;98619.31;;;8.68;87.22
33422;BME280;19763;55.798;37.782;2022-10-19T10:05:49;98616.06;;;8.89;87.56
33422;BME280;19763;55.798;37.782;2022-10-19T10:08:20;98604.81;;;8.90;87.66
33422;BME280;19763;55.798;37.782;2022-10-19T10:10:58;98603.97;;;8.63;87.61
33422;BME280;19763;55.798;37.782;2022-10-19T10:13:25;98619.59;;;8.58;86.92
33422;BME280;19763;55.798;37.782;2022-10-19T10:16:00;98622.22;;;8.57;88.83
33422;BME280;19763;55.798;37.782;2022-10-19T10:18:28;98616.63;;;8.42;88.90
33422;BME280;19763;55.798;37.782;2022-10-19T10:21:00;98627.66;;;8.48;90.04
33422;BME280;19763;55.798;37.782;2022-10-19T10:23:30;98614.50;;;8.27;89.74
33422;BME280;19763;55.798;37.782;2022-10-19T10:25:57;98617.53;;;8.40;89.38
33422;BME280;19763;55.798;37.782;2022-10-19T10:28:26;98595.31;;;8.36;90.42
33422;BME280;19763;55.798;37.782;2022-10-19T10:31:13;98617.06;;;8.57;89.54
33422;BME280;19763;55.798;37.782;2022-10-19T10:33:39;98610.81;;;8.64;89.55
33422;BME280;19763;55.798;37.782;2022-10-19T10:36:09;98624.88;;;8.55;89.44
33422;BME280;19763;55.798;37.782;2022-10-19T10:38:43;98616.44;;;8.49;88.69
33422;BME280;19763;55.798;37.782;2022-10-19T10:41:15;98624.72;;;8.60;88.74
33422;BME280;19763;55.798;37.782;2022-10-19T10:43:51;98622.22;;;8.57;88.50
33422;BME280;19763;55.798;37.782;2022-10-19T10:46:22;98610.59;;;8.42;88.54
33422;BME280;19763;55.798;37.782;2022-10-19T10:48:57;98620.28;;;8.65;89.53
33422;BME280;19763;55.798;37.782;2022-10-19T10:51:43;98618.56;;;8.64;88.45
33422;BME280;19763;55.798;37.782;2022-10-19T10:54:31;98618.47;;;8.67;89.49
33422;BME280;19763;55.798;37.782;2022-10-19T10:59:45;98616.88;;;8.63;88.88
33422;BME280;19763;55.798;37.782;2022-10-19T11:04:42;98579.84;;;8.36;88.84
33422;BME280;19763;55.798;37.782;2022-10-19T11:07:18;98594.63;;;8.59;88.36
33422;BME280;19763;55.798;37.782;2022-10-19T11:09:52;98588.28;;;8.69;88.27
33422;BME280;19763;55.798;37.782;2022-10-19T11:12:27;98587.41;;;8.70;88.15
33422;BME280;19763;55.798;37.782;2022-10-19T11:15:05;98572.16;;;8.62;88.00
33422;BME280;19763;55.798;37.782;2022-10-19T11:17:40;98568.91;;;8.56;87.77
33422;BME280;19763;55.798;37.782;2022-10-19T11:20:13;98576.47;;;8.89;87.26
33422;BME280;19763;55.798;37.782;2022-10-19T11:28:55;98584.13;;;8.65;87.18
33422;BME280;19763;55.798;37.782;2022-10-19T11:31:40;98572.28;;;8.58;86.53
33422;BME280;19763;55.798;37.782;2022-10-19T12:03:55;98602.09;;;8.95;84.82
33422;BME280;19763;55.798;37.782;2022-10-19T12:09:12;98600.75;;;8.83;84.74
33422;BME280;19763;55.798;37.782;2022-10-19T12:12:01;98597.56;;;9.02;84.94
33422;BME280;19763;55.798;37.782;2022-10-19T12:14:36;98591.59;;;9.01;84.92
33422;BME280;19763;55.798;37.782;2022-10-19T12:17:30;98600.09;;;9.03;83.50
33422;BME280;19763;55.798;37.782;2022-10-19T12:20:02;98598.69;;;8.94;84.74
33422;BME280;19763;55.798;37.782;2022-10-19T12:22:30;98604.00;;;8.90;84.72
33422;BME280;19763;55.798;37.782;2022-10-19T12:24:59;98606.25;;;8.99;84.35
33422;BME280;19763;55.798;37.782;2022-10-19T12:27:30;98606.03;;;9.07;84.45
33422;BME280;19763;55.798;37.782;2022-10-19T12:30:04;98588.13;;;9.02;84.63
33422;BME280;19763;55.798;37.782;2022-10-19T12:32:37;98602.47;;;9.11;84.86
33422;BME280;19763;55.798;37.782;2022-10-19T12:35:19;98610.03;;;9.15;84.73
33422;BME280;19763;55.798;37.782;2022-10-19T12:37:56;98610.75;;;9.21;83.99
33422;BME280;19763;55.798;37.782;2022-10-19T12:45:47;98593.63;;;8.91;83.96
33422;BME280;19763;55.798;37.782;2022-10-19T12:48:17;98599.66;;;8.90;83.81
33422;BME280;19763;55.798;37.782;2022-10-19T12:53:21;98604.03;;;8.88;83.22
33422;BME280;19763;55.798;37.782;2022-10-19T13:01:13;98601.91;;;9.01;84.59
33422;BME280;19763;55.798;37.782;2022-10-19T13:03:42;98608.56;;;8.81;85.17
33422;BME280;19763;55.798;37.782;2022-10-19T13:06:29;98595.75;;;8.78;85.03
33422;BME280;19763;55.798;37.782;2022-10-19T13:09:05;98616.91;;;8.90;85.45
33422;BME280;19763;55.798;37.782;2022-10-19T13:11:32;98612.97;;;9.05;84.90
33422;BME280;19763;55.798;37.782;2022-10-19T13:16:54;98615.81;;;8.97;85.78
33422;BME280;19763;55.798;37.782;2022-10-19T13:19:21;98614.88;;;9.00;85.54
33422;BME280;19763;55.798;37.782;2022-10-19T13:29:40;98625.97;;;9.02;84.54
33422;BME280;19763;55.798;37.782;2022-10-19T13:32:31;98629.44;;;9.02;84.72
33422;BME280;19763;55.798;37.782;2022-10-19T13:35:33;98627.63;;;9.04;85.05
33422;BME280;19763;55.798;37.782;2022-10-19T13:40:40;98624.84;;;9.10;83.97
33422;BME280;19763;55.798;37.782;2022-10-19T13:46:17;98632.78;;;9.04;84.14
33422;BME280;19763;55.798;37.782;2022-10-19T13:57:17;98636.53;;;8.95;83.20
33422;BME280;19763;55.798;37.782;2022-10-19T14:11:39;98635.81;;;8.62;84.36
33422;BME280;19763;55.798;37.782;2022-10-19T14:14:23;98649.53;;;8.64;83.38
33422;BME280;19763;55.798;37.782;2022-10-19T14:17:00;98655.13;;;8.78;83.24
33422;BME280;19763;55.798;37.782;2022-10-19T14:22:32;98648.66;;;8.92;82.76
33422;BME280;19763;55.798;37.782;2022-10-19T14:27:39;98650.25;;;8.96;82.68
33422;BME280;19763;55.798;37.782;2022-10-19T14:30:05;98653.84;;;8.92;82.49
33422;BME280;19763;55.798;37.782;2022-10-19T14:32:32;98651.72;;;8.76;82.78
33422;BME280;19763;55.798;37.782;2022-10-19T14:35:05;98647.09;;;8.59;81.74
33422;BME280;19763;55.798;37.782;2022-10-19T14:37:41;98653.34;;;8.51;81.47
33422;BME280;19763;55.798;37.782;2022-10-19T14:40:29;98662.06;;;8.48;82.40
33422;BME280;19763;55.798;37.782;2022-10-19T14:42:57;98656.34;;;8.37;82.55
33422;BME280;19763;55.798;37.782;2022-10-19T14:45:25;98661.19;;;8.48;83.27
33422;BME280;19763;55.798;37.782;2022-10-19T14:48:02;98644.88;;;8.47;81.69
33422;BME280;19763;55.798;37.782;2022-10-19T14:50:38;98667.34;;;8.42;81.89
33422;BME280;19763;55.798;37.782;2022-10-19T14:54:10;98663.56;;;8.55;81.88
33422;BME280;19763;55.798;37.782;2022-10-19T14:58:38;98674.91;;;8.50;82.04
33422;BME280;19763;55.798;37.782;2022-10-19T15:01:05;98677.84;;;8.67;81.40
33422;BME280;19763;55.798;37.782;2022-10-19T15:03:32;98680.88;;;8.52;81.02
33422;BME280;19763;55.798;37.782;2022-10-19T15:06:03;98664.03;;;8.38;81.25
33422;BME280;19763;55.798;37.782;2022-10-19T15:08:39;98683.53;;;8.49;81.19
33422;BME280;19763;55.798;37.782;2022-10-19T15:13:47;98681.19;;;8.39;80.41
33422;BME280;19763;55.798;37.782;2022-10-19T15:19:17;98678.28;;;8.52;79.54
33422;BME280;19763;55.798;37.782;2022-10-19T15:21:44;98699.47;;;8.63;79.92
33422;BME280;19763;55.798;37.782;2022-10-19T15:24:26;98675.09;;;8.42;79.81
33422;BME280;19763;55.798;37.782;2022-10-19T15:26:52;98699.75;;;8.54;81.15
33422;BME280;19763;55.798;37.782;2022-10-19T15:29:27;98709.38;;;8.47;81.13
33422;BME280;19763;55.798;37.782;2022-10-19T15:31:52;98698.19;;;8.48;81.60
33422;BME280;19763;55.798;37.782;2022-10-19T15:34:28;98698.13;;;8.50;80.67
33422;BME280;19763;55.798;37.782;2022-10-19T15:36:59;98706.72;;;8.50;81.53
33422;BME280;19763;55.798;37.782;2022-10-19T15:39:31;98704.34;;;8.42;80.56
33422;BME280;19763;55.798;37.782;2022-10-19T15:42:30;98716.75;;;8.29;81.12
33422;BME280;19763;55.798;37.782;2022-10-19T15:44:57;98721.66;;;8.37;81.13